createdAt,value
2018-07-21T00:01:20.520Z,6.87
2018-07-21T00:03:49.033Z,6.03
2018-07-21T00:06:17.285Z,6.80
2018-07-21T00:08:45.482Z,6.77
2018-07-21T00:11:14.080Z,6.50
2018-07-21T00:13:42.813Z,6.30
2018-07-21T00:16:11.002Z,7.50
2018-07-21T00:18:39.219Z,7.80
2018-07-21T00:21:08.592Z,7.93
2018-07-21T00:23:37.740Z,7.87
2018-07-21T00:26:05.924Z,7.03
2018-07-21T00:28:34.081Z,7.67
2018-07-21T00:31:02.752Z,6.47
2018-07-21T00:33:30.912Z,6.27
2018-07-21T00:35:59.952Z,6.50
2018-07-21T00:38:28.124Z,6.77
2018-07-21T00:40:56.309Z,7.13
2018-07-21T00:43:24.504Z,7.10
2018-07-21T00:45:53.796Z,6.87
2018-07-21T00:48:21.964Z,7.07
2018-07-21T00:50:50.096Z,7.50
2018-07-21T00:53:19.232Z,7.37
2018-07-21T00:55:47.416Z,6.90
2018-07-21T00:58:15.588Z,6.10
2018-07-21T01:00:45.504Z,6.23
2018-07-21T01:03:14.484Z,5.80
2018-07-21T01:05:48.961Z,6.33
2018-07-21T01:08:17.132Z,7.03
2018-07-21T01:10:45.892Z,6.10
2018-07-21T01:13:14.078Z,6.20
2018-07-21T01:15:42.244Z,6.30
2018-07-21T01:18:10.593Z,6.77
2018-07-21T01:20:40.184Z,6.53
2018-07-21T01:23:08.300Z,6.53
2018-07-21T01:25:36.804Z,6.50
2018-07-21T01:28:04.960Z,6.50
2018-07-21T01:30:34.580Z,6.00
2018-07-21T01:33:04.732Z,6.70
2018-07-21T01:35:33.431Z,6.50
2018-07-21T01:38:02.635Z,6.57
2018-07-21T01:40:30.800Z,6.07
2018-07-21T01:42:59.325Z,6.53
2018-07-21T01:45:27.704Z,6.60
2018-07-21T01:47:55.854Z,6.30
2018-07-21T01:50:24.905Z,6.53
2018-07-21T01:52:53.784Z,6.40
2018-07-21T01:55:22.852Z,6.50
2018-07-21T01:57:51.001Z,6.10
2018-07-21T02:00:19.151Z,7.47
2018-07-21T02:02:47.605Z,6.30
2018-07-21T02:05:16.642Z,6.43
2018-07-21T02:07:45.313Z,6.70
2018-07-21T02:10:13.917Z,6.30
2018-07-21T02:12:42.079Z,6.53
2018-07-21T02:15:10.223Z,6.40
2018-07-21T02:17:38.340Z,6.13
2018-07-21T02:20:06.616Z,6.80
2018-07-21T02:22:34.798Z,5.87
2018-07-21T02:25:03.380Z,6.27
2018-07-21T02:27:32.191Z,7.13
2018-07-21T02:30:00.398Z,6.93
2018-07-21T02:32:28.287Z,6.80
2018-07-21T02:34:56.486Z,6.37
2018-07-21T02:37:24.661Z,6.60
2018-07-21T02:39:52.839Z,7.40
2018-07-21T02:42:21.383Z,7.70
2018-07-21T02:44:49.577Z,7.73
2018-07-21T02:47:18.263Z,6.97
2018-07-21T02:49:46.441Z,7.17
2018-07-21T02:52:15.077Z,9.13
2018-07-21T02:54:43.225Z,7.57
2018-07-21T02:57:11.379Z,8.03
2018-07-21T02:59:40.592Z,7.40
2018-07-21T03:02:09.997Z,7.73
2018-07-21T03:04:38.141Z,7.27
2018-07-21T03:07:07.485Z,8.40
2018-07-21T03:09:35.656Z,7.17
2018-07-21T03:12:04.785Z,8.00
2018-07-21T03:14:32.975Z,8.17
2018-07-21T03:17:01.634Z,7.30
2018-07-21T03:19:29.794Z,7.23
2018-07-21T03:21:58.020Z,9.37
2018-07-21T03:24:26.137Z,8.20
2018-07-21T03:26:54.832Z,8.27
2018-07-21T03:29:24.209Z,7.70
2018-07-21T03:31:53.197Z,8.07
2018-07-21T03:34:21.368Z,7.17
2018-07-21T03:36:49.904Z,8.13
2018-07-21T03:39:18.136Z,8.07
2018-07-21T03:41:46.324Z,7.80
2018-07-21T03:44:14.484Z,7.53
2018-07-21T03:46:43.118Z,7.40
2018-07-21T03:49:11.257Z,7.43
2018-07-21T03:51:40.786Z,7.47
2018-07-21T03:54:08.918Z,7.50
2018-07-21T03:56:37.367Z,7.00
2018-07-21T03:59:05.867Z,7.30
2018-07-21T04:01:34.028Z,7.60
2018-07-21T04:04:02.142Z,7.70
2018-07-21T04:06:30.304Z,7.70
2018-07-21T04:08:59.492Z,9.10
2018-07-21T04:11:28.165Z,8.80
2018-07-21T04:13:56.676Z,8.50
2018-07-21T04:16:26.486Z,8.10
2018-07-21T04:18:55.467Z,8.10
2018-07-21T04:21:24.331Z,8.70
2018-07-21T04:23:53.021Z,9.50
2018-07-21T04:26:21.657Z,9.63
2018-07-21T04:28:50.176Z,8.70
2018-07-21T04:31:18.350Z,8.63
2018-07-21T04:33:46.477Z,9.53
2018-07-21T04:36:14.636Z,8.50
2018-07-21T04:38:43.336Z,8.73
2018-07-21T04:41:11.980Z,8.23
2018-07-21T04:43:41.099Z,9.20
2018-07-21T04:46:09.225Z,8.60
2018-07-21T04:48:38.000Z,7.90
2018-07-21T04:51:07.498Z,8.30
2018-07-21T04:53:36.590Z,8.07
2018-07-21T04:56:05.864Z,8.23
2018-07-21T04:58:34.024Z,8.20
2018-07-21T05:01:02.728Z,8.20
2018-07-21T05:03:30.866Z,8.93
2018-07-21T05:05:59.340Z,8.30
2018-07-21T05:08:27.828Z,8.17
2018-07-21T05:10:56.040Z,8.30
2018-07-21T05:13:24.298Z,8.83
2018-07-21T05:15:53.742Z,8.00
2018-07-21T05:18:23.076Z,7.33
2018-07-21T05:20:51.383Z,8.70
2018-07-21T05:23:20.716Z,9.40
2018-07-21T05:25:48.852Z,7.63
2018-07-21T05:28:17.014Z,8.77
2018-07-21T05:30:45.812Z,9.30
2018-07-21T05:33:14.231Z,8.40
2018-07-21T05:35:44.316Z,8.80
2018-07-21T05:38:13.396Z,8.63
2018-07-21T05:40:42.273Z,8.37
2018-07-21T05:43:11.548Z,9.50
2018-07-21T05:45:41.072Z,8.10
2018-07-21T05:48:09.229Z,8.30
2018-07-21T05:50:38.324Z,8.53
2018-07-21T05:53:06.497Z,9.37
2018-07-21T05:55:34.652Z,8.00
2018-07-21T05:58:02.800Z,8.13
2018-07-21T06:00:31.661Z,9.03
2018-07-21T06:02:59.874Z,8.00
2018-07-21T06:05:28.012Z,8.23
2018-07-21T06:07:56.602Z,8.70
2018-07-21T06:10:25.236Z,7.97
2018-07-21T06:12:53.403Z,9.00
2018-07-21T06:15:22.272Z,8.20
2018-07-21T06:17:51.121Z,8.27
2018-07-21T06:20:20.173Z,8.37
2018-07-21T06:22:48.352Z,7.70
2018-07-21T06:25:16.528Z,7.40
2018-07-21T06:27:44.672Z,6.97
2018-07-21T06:30:13.294Z,6.63
2018-07-21T06:32:41.854Z,6.27
2018-07-21T06:35:10.025Z,7.33
2018-07-21T06:37:38.172Z,6.57
2018-07-21T06:40:07.233Z,6.70
2018-07-21T06:42:35.739Z,6.10
2018-07-21T06:45:04.332Z,6.73
2018-07-21T06:47:32.859Z,6.40
2018-07-21T06:50:02.085Z,5.70
2018-07-21T06:52:31.704Z,5.40
2018-07-21T06:55:00.900Z,5.80
2018-07-21T06:57:29.300Z,5.23
2018-07-21T06:59:58.369Z,5.87
2018-07-21T07:02:27.319Z,5.40
2018-07-21T07:04:55.433Z,6.27
2018-07-21T07:07:25.652Z,4.07
2018-07-21T07:09:53.836Z,4.73
2018-07-21T07:12:22.452Z,4.77
2018-07-21T07:14:51.202Z,4.60
2018-07-21T07:17:19.676Z,5.17
2018-07-21T07:19:47.820Z,4.83
2018-07-21T07:22:15.967Z,4.83
2018-07-21T07:24:44.689Z,4.70
2018-07-21T07:27:13.301Z,4.50
2018-07-21T07:29:41.728Z,4.00
2018-07-21T07:32:10.248Z,4.87
2018-07-21T07:34:38.792Z,4.40
2018-07-21T07:37:08.092Z,3.87
2018-07-21T07:39:36.300Z,4.10
2018-07-21T07:42:05.183Z,4.27
2018-07-21T07:44:34.308Z,4.50
2018-07-21T07:47:02.760Z,3.80
2018-07-21T07:49:30.896Z,4.20
2018-07-21T07:51:59.083Z,4.17
2018-07-21T07:54:27.209Z,3.57
2018-07-21T07:56:55.382Z,4.10
2018-07-21T07:59:23.560Z,3.77
2018-07-21T08:01:51.764Z,3.70
2018-07-21T08:04:20.471Z,4.00
2018-07-21T08:06:49.255Z,3.83
2018-07-21T08:09:17.436Z,3.97
2018-07-21T08:11:47.132Z,3.80
2018-07-21T08:14:15.313Z,3.40
2018-07-21T08:16:43.447Z,4.60
2018-07-21T08:19:11.592Z,4.20
2018-07-21T08:21:39.746Z,4.17
2018-07-21T08:24:08.900Z,3.53
2018-07-21T08:26:37.988Z,4.00
2018-07-21T08:29:07.558Z,4.20
2018-07-21T08:31:36.135Z,4.10
2018-07-21T08:34:04.499Z,3.57
2018-07-21T08:36:32.641Z,4.20
2018-07-21T08:39:00.760Z,3.90
2018-07-21T08:41:28.903Z,3.63
2018-07-21T08:43:57.084Z,4.27
2018-07-21T08:46:26.336Z,3.60
2018-07-21T08:48:54.492Z,4.00
2018-07-21T08:51:23.152Z,3.40
2018-07-21T08:53:51.344Z,3.73
2018-07-21T08:56:19.816Z,4.07
2018-07-21T08:58:48.008Z,4.20
2018-07-21T09:01:18.699Z,4.43
2018-07-21T09:03:49.086Z,3.70
2018-07-21T09:06:17.332Z,4.20
2018-07-21T09:08:45.476Z,3.93
2018-07-21T09:11:13.662Z,3.80
2018-07-21T09:13:43.600Z,3.67
2018-07-21T09:16:11.895Z,3.67
2018-07-21T09:18:40.633Z,3.70
2018-07-21T09:21:09.703Z,3.83
2018-07-21T09:23:38.209Z,4.40
2018-07-21T09:26:07.164Z,3.67
2018-07-21T09:28:36.347Z,4.33
2018-07-21T09:31:04.559Z,4.03
2018-07-21T09:33:33.102Z,6.87
2018-07-21T09:36:01.307Z,4.20
2018-07-21T09:38:29.477Z,4.03
2018-07-21T09:40:57.589Z,4.13
2018-07-21T09:43:25.765Z,4.10
2018-07-21T09:45:57.502Z,3.90
2018-07-21T09:48:27.115Z,4.30
2018-07-21T09:50:56.288Z,5.17
2018-07-21T09:53:25.512Z,4.30
2018-07-21T09:55:54.621Z,4.57
2018-07-21T09:58:24.896Z,4.40
2018-07-21T10:00:59.575Z,4.80
2018-07-21T10:03:28.884Z,4.63
2018-07-21T10:05:57.028Z,5.70
2018-07-21T10:08:25.532Z,4.60
2018-07-21T10:10:54.656Z,5.47
2018-07-21T10:13:23.587Z,5.13
2018-07-21T10:15:51.752Z,4.97
2018-07-21T10:18:21.121Z,5.67
2018-07-21T10:20:49.691Z,5.27
2018-07-21T10:23:18.196Z,5.20
2018-07-21T10:25:51.715Z,5.20
2018-07-21T10:28:25.524Z,4.83
2018-07-21T10:30:53.636Z,5.10
2018-07-21T10:33:21.772Z,5.73
2018-07-21T10:35:49.957Z,6.37
2018-07-21T10:38:19.200Z,6.50
2018-07-21T10:40:47.360Z,6.57
2018-07-21T10:43:16.679Z,7.30
2018-07-21T10:45:44.824Z,6.30
2018-07-21T10:48:15.030Z,7.20
2018-07-21T10:50:43.294Z,7.50
2018-07-21T10:53:12.429Z,7.30
2018-07-21T10:55:40.845Z,7.23
2018-07-21T10:58:08.964Z,7.10
2018-07-21T11:00:37.104Z,7.50
2018-07-21T11:03:07.000Z,7.77
2018-07-21T11:05:35.229Z,7.60
2018-07-21T11:08:05.405Z,7.30
2018-07-21T11:10:33.548Z,7.47
2018-07-21T11:13:03.120Z,7.73
2018-07-21T11:15:31.719Z,7.40
2018-07-21T11:18:00.417Z,7.30
2018-07-21T11:20:28.580Z,7.43
2018-07-21T11:22:57.404Z,7.30
2018-07-21T11:25:25.808Z,6.97
2018-07-21T11:27:54.376Z,7.13
2018-07-21T11:30:24.459Z,7.50
2018-07-21T11:32:52.613Z,7.50
2018-07-21T11:35:21.358Z,7.10
2018-07-21T11:37:50.024Z,6.90
2018-07-21T11:43:11.458Z,7.50
2018-07-21T11:45:49.648Z,8.03
2018-07-21T11:48:18.711Z,8.03
2018-07-21T11:50:48.916Z,7.60
2018-07-21T11:53:17.088Z,7.60
2018-07-21T11:55:45.284Z,7.73
2018-07-21T11:58:14.116Z,7.90
2018-07-21T12:00:42.831Z,7.13
2018-07-21T12:03:11.019Z,7.80
2018-07-21T12:05:39.283Z,8.17
2018-07-21T12:08:08.088Z,7.77
2018-07-21T12:10:36.308Z,7.63
2018-07-21T12:13:04.597Z,7.90
2018-07-21T12:15:32.744Z,7.60
2018-07-21T12:18:01.006Z,8.20
2018-07-21T12:20:29.416Z,7.77
2018-07-21T12:22:58.033Z,7.80
2018-07-21T12:25:26.946Z,9.20
2018-07-21T12:27:56.485Z,8.63
2018-07-21T12:30:25.296Z,9.63
2018-07-21T12:32:54.474Z,7.03
2018-07-21T12:35:22.836Z,8.97
2018-07-21T12:37:53.071Z,9.03
2018-07-21T12:40:22.724Z,8.30
2018-07-21T12:42:50.937Z,9.27
2018-07-21T12:45:20.667Z,9.13
2018-07-21T12:47:50.440Z,9.47
2018-07-21T12:50:18.589Z,8.47
2018-07-21T12:52:47.366Z,9.17
2018-07-21T12:55:15.548Z,9.23
2018-07-21T12:57:43.796Z,10.07
2018-07-21T13:00:14.023Z,9.60
2018-07-21T13:02:42.817Z,9.53
2018-07-21T13:05:11.832Z,10.90
2018-07-21T13:07:40.014Z,10.00
2018-07-21T13:10:08.169Z,9.73
2018-07-21T13:12:36.904Z,9.70
2018-07-21T13:15:05.800Z,8.80
2018-07-21T13:17:34.890Z,9.67
2018-07-21T13:20:03.556Z,8.10
2018-07-21T13:22:31.729Z,9.17
2018-07-21T13:24:59.896Z,8.33
2018-07-21T13:27:28.072Z,8.90
2018-07-21T13:29:56.512Z,10.03
2018-07-21T13:32:24.949Z,9.40
2018-07-21T13:34:53.410Z,8.80
2018-07-21T13:37:21.887Z,8.13
2018-07-21T13:39:50.566Z,9.53
2018-07-21T13:42:20.766Z,9.27
2018-07-21T13:44:49.293Z,9.43
2018-07-21T13:47:18.240Z,9.37
2018-07-21T13:49:46.436Z,9.33
2018-07-21T13:52:14.664Z,7.67
2018-07-21T13:54:42.980Z,8.37
2018-07-21T13:57:11.148Z,7.80
2018-07-21T13:59:39.362Z,8.07
2018-07-21T14:02:08.207Z,8.63
2018-07-21T14:04:36.340Z,7.23
2018-07-21T14:07:04.934Z,8.67
2018-07-21T14:09:33.085Z,8.80
2018-07-21T14:12:01.720Z,8.37
2018-07-21T14:14:29.849Z,8.50
2018-07-21T14:16:59.368Z,8.60
2018-07-21T14:19:27.492Z,9.27
2018-07-21T14:21:56.381Z,8.50
2018-07-21T14:24:24.621Z,8.57
2018-07-21T14:26:52.764Z,9.40
2018-07-21T14:29:21.492Z,7.97
2018-07-21T14:31:50.456Z,8.40
2018-07-21T14:34:18.596Z,9.33
2018-07-21T14:36:46.840Z,9.00
2018-07-21T14:39:15.260Z,9.40
2018-07-21T14:41:43.550Z,10.70
2018-07-21T14:44:11.712Z,8.30
2018-07-21T14:46:41.612Z,8.80
2018-07-21T14:49:09.812Z,9.10
2018-07-21T14:51:37.968Z,9.80
2018-07-21T14:54:06.132Z,9.00
2018-07-21T14:56:35.298Z,8.90
2018-07-21T14:59:04.496Z,9.23
2018-07-21T15:01:32.704Z,8.50
2018-07-21T15:04:01.222Z,9.50
2018-07-21T15:06:31.260Z,10.23
2018-07-21T15:09:00.042Z,9.70
2018-07-21T15:11:28.440Z,10.10
2018-07-21T15:13:57.327Z,9.30
2018-07-21T15:16:25.476Z,9.23
2018-07-21T15:18:53.620Z,9.07
2018-07-21T15:21:22.437Z,9.20
2018-07-21T15:23:50.607Z,8.83
2018-07-21T15:26:19.488Z,8.70
2018-07-21T15:28:47.913Z,8.23
2018-07-21T15:31:16.050Z,7.63
2018-07-21T15:33:44.199Z,8.93
2018-07-21T15:36:12.328Z,8.80
2018-07-21T15:38:40.552Z,8.83
2018-07-21T15:41:09.748Z,8.23
2018-07-21T15:43:38.461Z,8.67
2018-07-21T15:46:07.301Z,8.97
2018-07-21T15:48:36.141Z,8.40
2018-07-21T15:51:04.304Z,7.80
2018-07-21T15:53:32.452Z,8.63
2018-07-21T15:56:00.629Z,8.77
2018-07-21T15:58:28.801Z,8.40
2018-07-21T16:00:58.996Z,8.80
2018-07-21T16:03:27.151Z,7.90
2018-07-21T16:05:55.533Z,8.20
2018-07-21T16:08:24.240Z,7.90
2018-07-21T16:10:52.464Z,7.30
2018-07-21T16:13:20.876Z,7.50
2018-07-21T16:15:49.044Z,7.63
2018-07-21T16:18:17.700Z,8.30
2018-07-21T16:20:46.352Z,7.63
2018-07-21T16:23:14.513Z,7.93
2018-07-21T16:25:42.749Z,8.00
2018-07-21T16:28:10.932Z,7.60
2018-07-21T16:30:39.753Z,7.47
2018-07-21T16:33:07.840Z,7.50
2018-07-21T16:35:35.993Z,7.90
2018-07-21T16:38:05.107Z,9.43
2018-07-21T16:40:34.092Z,7.63
2018-07-21T16:43:03.132Z,8.30
2018-07-21T16:45:31.310Z,8.07
2018-07-21T16:48:00.135Z,8.90
2018-07-21T16:50:28.291Z,8.40
2018-07-21T16:52:56.417Z,8.73
2018-07-21T16:55:25.502Z,9.67
2018-07-21T16:57:53.989Z,8.47
2018-07-21T17:00:22.460Z,7.60
2018-07-21T17:02:50.600Z,6.73
2018-07-21T17:05:18.716Z,6.97
2018-07-21T17:07:46.880Z,7.00
2018-07-21T17:10:15.033Z,6.50
2018-07-21T17:12:43.236Z,6.37
2018-07-21T17:15:11.404Z,6.63
2018-07-21T17:17:40.200Z,5.77
2018-07-21T17:20:08.694Z,6.50
2018-07-21T17:22:38.087Z,5.70
2018-07-21T17:25:06.240Z,7.00
2018-07-21T17:27:35.844Z,6.10
2018-07-21T17:30:04.086Z,5.80
2018-07-21T17:32:33.240Z,5.57
2018-07-21T17:35:02.768Z,5.60
2018-07-21T17:37:31.478Z,6.07
2018-07-21T17:39:59.623Z,5.50
2018-07-21T17:42:28.040Z,6.00
2018-07-21T17:44:56.545Z,5.60
2018-07-21T17:47:25.300Z,5.70
2018-07-21T17:49:53.710Z,6.20
2018-07-21T17:52:22.180Z,5.30
2018-07-21T17:54:51.172Z,6.40
2018-07-21T17:57:19.625Z,5.60
2018-07-21T17:59:47.764Z,5.30
2018-07-21T18:02:15.900Z,4.67
2018-07-21T18:04:44.788Z,5.40
2018-07-21T18:07:13.473Z,5.33
2018-07-21T18:09:41.651Z,5.23
2018-07-21T18:12:09.804Z,5.60
2018-07-21T18:14:39.307Z,5.87
2018-07-21T18:17:08.252Z,6.07
2018-07-21T18:19:36.414Z,5.57
2018-07-21T18:22:04.901Z,6.60
2018-07-21T18:24:33.844Z,7.50
2018-07-21T18:27:02.636Z,6.37
2018-07-21T18:29:31.116Z,7.27
2018-07-21T18:31:59.512Z,7.40
2018-07-21T18:34:29.018Z,8.17
2018-07-21T18:36:57.889Z,7.90
2018-07-21T18:39:26.019Z,8.50
2018-07-21T18:41:54.180Z,7.23
2018-07-21T18:44:22.803Z,7.77
2018-07-21T18:46:51.575Z,8.90
2018-07-21T18:49:19.782Z,8.60
2018-07-21T18:51:48.413Z,8.60
2018-07-21T18:54:16.619Z,7.60
2018-07-21T18:56:44.812Z,9.13
2018-07-21T18:59:15.093Z,8.53
2018-07-21T19:01:43.624Z,9.13
2018-07-21T19:04:11.816Z,9.37
2018-07-21T19:06:39.960Z,8.40
2018-07-21T19:09:09.513Z,9.70
2018-07-21T19:11:40.020Z,11.27
2018-07-21T19:14:08.186Z,9.87
2018-07-21T19:16:39.780Z,10.53
2018-07-21T19:19:08.247Z,9.30
2018-07-21T19:21:37.384Z,9.83
2018-07-21T19:24:05.560Z,9.97
2018-07-21T19:26:39.554Z,10.90
2018-07-21T19:29:07.744Z,11.37
2018-07-21T19:31:36.246Z,11.40
2018-07-21T19:34:04.909Z,10.37
2018-07-21T19:36:33.112Z,11.27
2018-07-21T19:39:01.246Z,10.20
2018-07-21T19:41:35.014Z,11.40
2018-07-21T19:44:03.937Z,11.67
2018-07-21T19:46:32.585Z,12.80
2018-07-21T19:49:01.084Z,12.90
2018-07-21T19:51:30.068Z,12.33
2018-07-21T19:53:58.194Z,12.57
2018-07-21T19:56:26.848Z,13.33
2018-07-21T19:58:55.047Z,11.60
2018-07-21T20:01:23.779Z,13.63
2018-07-21T20:03:52.856Z,13.80
2018-07-21T20:06:22.963Z,14.27
2018-07-21T20:08:51.557Z,15.07
2018-07-21T20:11:20.630Z,14.80
2018-07-21T20:13:49.530Z,14.50
2018-07-21T20:16:17.641Z,13.03
2018-07-21T20:18:46.313Z,14.60
2018-07-21T20:21:14.578Z,14.37
2018-07-21T20:23:42.674Z,12.63
2018-07-21T20:26:12.453Z,15.03
2018-07-21T20:28:40.609Z,13.60
2018-07-21T20:31:09.389Z,15.50
2018-07-21T20:33:37.538Z,15.90
2018-07-21T20:36:06.168Z,16.03
2018-07-21T20:38:34.304Z,17.10
2018-07-21T20:41:02.485Z,16.10
2018-07-21T20:43:31.880Z,17.20
2018-07-21T20:46:01.768Z,15.97
2018-07-21T20:48:29.968Z,16.70
2018-07-21T20:51:00.257Z,16.00
2018-07-21T20:53:28.433Z,16.70
2018-07-21T20:55:56.601Z,16.07
2018-07-21T20:58:24.785Z,15.83
2018-07-21T21:00:54.220Z,17.80
2018-07-21T21:03:22.380Z,17.60
2018-07-21T21:05:51.037Z,16.60
2018-07-21T21:08:19.224Z,17.87
2018-07-21T21:10:47.464Z,15.10
2018-07-21T21:13:15.636Z,14.07
2018-07-21T21:15:43.804Z,14.80
2018-07-21T21:18:15.493Z,14.77
2018-07-21T21:20:43.682Z,16.17
2018-07-21T21:23:11.920Z,15.03
2018-07-21T21:25:40.828Z,15.70
2018-07-21T21:28:08.980Z,16.33
2018-07-21T21:30:37.103Z,18.10
2018-07-21T21:33:05.412Z,18.37
2018-07-21T21:35:33.607Z,18.33
2018-07-21T21:38:02.633Z,17.37
2018-07-21T21:40:31.486Z,14.70
2018-07-21T21:43:00.612Z,13.70
2018-07-21T21:45:28.811Z,14.60
2018-07-21T21:47:57.044Z,14.57
2018-07-21T21:50:25.732Z,14.90
2018-07-21T21:52:53.897Z,14.10
2018-07-21T21:55:23.498Z,13.43
2018-07-21T21:57:53.623Z,14.43
2018-07-21T22:00:25.818Z,17.07
2018-07-21T22:02:54.688Z,18.73
2018-07-21T22:05:23.160Z,15.60
2018-07-21T22:07:51.331Z,14.77
2018-07-21T22:10:19.979Z,15.03
2018-07-21T22:12:49.186Z,14.60
2018-07-21T22:15:21.542Z,15.27
2018-07-21T22:17:50.936Z,16.67
2018-07-21T22:20:19.136Z,16.40
2018-07-21T22:22:47.343Z,15.93
2018-07-21T22:25:15.515Z,16.33
2018-07-21T22:27:44.773Z,14.43
2018-07-21T22:30:20.396Z,18.50
2018-07-21T22:32:49.197Z,16.63
2018-07-21T22:35:18.103Z,18.87
2018-07-21T22:37:46.260Z,18.63
2018-07-21T22:40:15.661Z,18.47
2018-07-21T22:42:43.802Z,17.30
2018-07-21T22:45:12.792Z,18.70
2018-07-21T22:47:41.225Z,18.33
2018-07-21T22:50:09.660Z,18.30
2018-07-21T22:52:37.859Z,16.90
2018-07-21T22:55:06.360Z,17.80
2018-07-21T22:57:34.531Z,17.30
2018-07-21T23:00:03.927Z,18.17
2018-07-21T23:02:32.072Z,19.40
2018-07-21T23:05:00.740Z,20.93
2018-07-21T23:07:28.927Z,21.77
2018-07-21T23:09:57.166Z,22.30
2018-07-21T23:12:25.321Z,22.10
2018-07-21T23:14:54.392Z,22.30
2018-07-21T23:17:22.564Z,24.20
2018-07-21T23:19:52.214Z,24.27
2018-07-21T23:22:20.323Z,22.00
2018-07-21T23:24:49.276Z,21.37
2018-07-21T23:27:19.560Z,21.63
2018-07-21T23:29:47.725Z,22.97
2018-07-21T23:32:16.322Z,20.40
2018-07-21T23:34:45.681Z,20.30
2018-07-21T23:37:14.975Z,20.77
2018-07-21T23:39:43.100Z,23.10
2018-07-21T23:42:11.296Z,23.80
2018-07-21T23:44:39.434Z,23.00
2018-07-21T23:47:08.643Z,22.03
2018-07-21T23:49:36.798Z,22.73
2018-07-21T23:52:05.801Z,22.30
2018-07-21T23:54:34.769Z,22.10
2018-07-21T23:57:03.543Z,21.70
2018-07-21T23:59:32.740Z,23.43
